Time;durP1;ratioP1;P1;durP2;ratioP2;P2;SDS_P1;SDS_P2;PMS_P1;PMS_P2;Temp;Humidity;BMP_temperature;BMP_pressure;BME280_temperature;BME280_humidity;BME280_pressure;Samples;Min_cycle;Max_cycle;Signal;HPM_P1;HPM_P2
2023/03/30 00:01:33;;;;;;;15.68;9.45;;;11.40;99.90;;;;;;5017667;28;20529;-70
2023/03/30 00:03:59;;;;;;;12.73;9.45;;;11.50;99.90;;;;;;5017425;28;20502;-70
2023/03/30 00:06:25;;;;;;;21.70;9.20;;;11.50;99.90;;;;;;5016267;28;20463;-69
2023/03/30 00:08:55;;;;;;;17.05;8.73;;;11.50;99.90;;;;;;5017037;28;20086;-70
2023/03/30 00:11:22;;;;;;;18.45;9.63;;;11.50;99.90;;;;;;5017656;28;20036;-70
2023/03/30 00:13:49;;;;;;;13.60;8.20;;;11.50;99.90;;;;;;5017211;28;20022;-70
2023/03/30 00:16:16;;;;;;;15.70;8.15;;;11.50;99.90;;;;;;5017516;28;20032;-70
2023/03/30 00:18:43;;;;;;;17.08;8.93;;;11.60;99.90;;;;;;5008086;28;20642;-70
2023/03/30 00:21:10;;;;;;;16.73;9.32;;;11.60;99.90;;;;;;5017028;28;20042;-70
2023/03/30 00:23:37;;;;;;;14.40;9.20;;;11.60;99.90;;;;;;5007126;28;20037;-70
2023/03/30 00:26:03;;;;;;;16.48;9.18;;;11.50;99.90;;;;;;5017045;28;20069;-70
2023/03/30 00:28:30;;;;;;;13.65;9.35;;;11.50;99.90;;;;;;5017250;28;20014;-70
2023/03/30 00:30:55;;;;;;;17.73;9.55;;;11.60;99.90;;;;;;5015867;28;20112;-70
2023/03/30 00:33:21;;;;;;;17.30;8.43;;;11.60;99.90;;;;;;5017442;28;20042;-69
2023/03/30 00:35:55;;;;;;;18.75;10.32;;;11.60;99.90;;;;;;5015712;28;20026;-70
2023/03/30 00:38:21;;;;;;;13.43;9.48;;;11.60;99.90;;;;;;5017259;28;20025;-70
2023/03/30 00:40:58;;;;;;;20.83;10.10;;;11.60;99.90;;;;;;5016610;28;20065;-70
2023/03/30 00:43:25;;;;;;;20.98;9.93;;;11.60;99.90;;;;;;5015560;28;20026;-69
2023/03/30 00:45:51;;;;;;;18.98;9.85;;;11.60;99.90;;;;;;5015657;28;20117;-70
2023/03/30 00:48:26;;;;;;;23.13;10.63;;;11.60;99.90;;;;;;5016953;28;20018;-70
2023/03/30 00:50:57;;;;;;;17.27;10.80;;;11.50;99.90;;;;;;5017010;28;20049;-69
2023/03/30 00:53:46;;;;;;;21.55;9.27;;;11.60;99.90;;;;;;5016807;28;20025;-70
2023/03/30 00:56:15;;;;;;;16.80;11.40;;;11.60;99.90;;;;;;5009797;28;20040;-70
2023/03/30 00:58:43;;;;;;;14.73;9.93;;;11.60;99.90;;;;;;5016845;28;20033;-70
2023/03/30 01:01:13;;;;;;;27.17;11.15;;;11.60;99.90;;;;;;5015722;28;20030;-70
2023/03/30 01:03:46;;;;;;;19.88;10.23;;;11.60;99.90;;;;;;5015654;28;20036;-69
2023/03/30 01:06:13;;;;;;;20.80;10.52;;;11.60;99.90;;;;;;5016952;28;20045;-69
2023/03/30 01:08:41;;;;;;;15.15;7.22;;;11.50;99.90;;;;;;5016588;28;20014;-69
2023/03/30 01:11:07;;;;;;;17.52;10.20;;;11.60;99.90;;;;;;5015520;28;20034;-70
2023/03/30 01:13:40;;;;;;;19.30;9.82;;;11.60;99.90;;;;;;5016775;28;20105;-70
2023/03/30 01:16:17;;;;;;;19.50;11.68;;;11.60;99.90;;;;;;5016855;28;20480;-70
2023/03/30 01:18:46;;;;;;;18.77;12.55;;;11.50;99.90;;;;;;5007768;28;20114;-70
2023/03/30 01:21:40;;;;;;;23.58;10.73;;;11.50;99.90;;;;;;5016418;28;20046;-70
2023/03/30 01:24:05;;;;;;;20.58;10.40;;;11.50;99.90;;;;;;5015210;28;20026;-70
2023/03/30 01:26:42;;;;;;;19.80;8.05;;;11.50;99.90;;;;;;5015298;28;20033;-70
2023/03/30 01:29:48;;;;;;;16.40;10.35;;;11.50;99.90;;;;;;5016711;28;20096;-70
2023/03/30 01:32:35;;;;;;;26.73;10.18;;;11.50;99.90;;;;;;4997817;28;20113;-70
2023/03/30 01:35:42;;;;;;;19.70;9.60;;;11.50;99.90;;;;;;5008497;28;20534;-70
2023/03/30 01:38:45;;;;;;;19.05;9.10;;;11.60;99.90;;;;;;5010797;28;20417;-70
2023/03/30 01:41:13;;;;;;;23.30;9.68;;;11.50;99.90;;;;;;5016520;28;20084;-70
2023/03/30 01:43:50;;;;;;;23.52;10.32;;;11.60;99.90;;;;;;5016500;28;20025;-69
2023/03/30 01:46:29;;;;;;;24.48;9.40;;;11.60;99.90;;;;;;5015151;28;20467;-70
2023/03/30 01:49:00;;;;;;;28.05;9.88;;;11.60;99.90;;;;;;5014836;28;20030;-70
2023/03/30 01:51:38;;;;;;;19.88;8.77;;;11.60;99.90;;;;;;5016769;28;20024;-69
2023/03/30 01:54:12;;;;;;;18.40;8.85;;;11.60;99.90;;;;;;5019756;28;20014;-70
2023/03/30 01:57:03;;;;;;;18.52;9.30;;;11.60;99.90;;;;;;5018606;28;20022;-70
2023/03/30 01:59:29;;;;;;;;;;;11.70;99.90;;;;;;5013397;28;20390;-70
2023/03/30 02:02:01;;;;;;;18.10;8.15;;;11.70;99.90;;;;;;5018539;28;19906;-69
2023/03/30 02:04:34;;;;;;;17.27;8.35;;;11.70;99.90;;;;;;5018428;28;20035;-70
2023/03/30 02:07:08;;;;;;;17.38;8.60;;;11.70;99.90;;;;;;5019328;28;20041;-70
2023/03/30 02:09:38;;;;;;;22.80;9.98;;;11.70;99.90;;;;;;5018240;28;20095;-70
2023/03/30 02:12:04;;;;;;;18.70;8.68;;;11.70;99.90;;;;;;5018137;28;20375;-70
2023/03/30 02:14:33;;;;;;;15.05;8.52;;;11.70;99.90;;;;;;5019497;28;20026;-70
2023/03/30 02:17:13;;;;;;;17.60;8.35;;;11.70;99.90;;;;;;5019457;28;20022;-70
2023/03/30 02:19:40;;;;;;;17.05;7.82;;;11.70;99.90;;;;;;5019217;28;20046;-70
2023/03/30 02:22:07;;;;;;;17.20;8.07;;;11.70;99.90;;;;;;5018135;28;20026;-70
2023/03/30 02:24:34;;;;;;;13.75;7.78;;;11.70;99.90;;;;;;5019277;28;20022;-70
2023/03/30 02:27:01;;;;;;;14.52;7.60;;;11.70;99.90;;;;;;5019362;28;20057;-69
2023/03/30 02:29:27;;;;;;;21.83;8.38;;;11.70;99.90;;;;;;5019214;28;20512;-70
2023/03/30 02:31:56;;;;;;;17.77;8.52;;;11.60;99.90;;;;;;5019467;28;20026;-70
2023/03/30 02:34:47;;;;;;;17.33;8.23;;;11.60;99.90;;;;;;5018956;28;20082;-69
2023/03/30 02:37:43;;;;;;;15.20;7.65;;;11.60;99.90;;;;;;5017737;28;20042;-70
2023/03/30 02:40:12;;;;;;;9.27;7.70;;;11.50;99.90;;;;;;5013307;28;20076;-70
2023/03/30 02:43:06;;;;;;;21.17;7.53;;;11.60;99.90;;;;;;5018907;28;20423;-70
2023/03/30 02:45:41;;;;;;;21.45;8.15;;;11.60;99.90;;;;;;5018905;28;20029;-70
2023/03/30 02:48:40;;;;;;;15.73;7.70;;;11.60;99.90;;;;;;5012227;28;20028;-70
2023/03/30 02:51:15;;;;;;;14.55;7.35;;;11.50;99.90;;;;;;5018857;28;20022;-70
2023/03/30 02:53:50;;;;;;;10.20;6.78;;;11.50;99.90;;;;;;5018610;28;20041;-70
2023/03/30 02:56:29;;;;;;;18.92;7.13;;;11.50;99.90;;;;;;5017546;28;20026;-70
2023/03/30 02:59:09;;;;;;;14.30;7.53;;;11.50;99.90;;;;;;5018815;28;20018;-70
2023/03/30 03:01:37;;;;;;;14.05;7.47;;;11.50;99.90;;;;;;5016254;28;20022;-70
2023/03/30 03:04:04;;;;;;;9.65;6.18;;;11.50;99.90;;;;;;5009512;28;20030;-70
2023/03/30 03:06:33;;;;;;;16.88;7.40;;;11.50;99.90;;;;;;5018544;28;20026;-70
2023/03/30 03:08:59;;;;;;;15.70;8.10;;;11.50;99.90;;;;;;5018303;28;20026;-70
2023/03/30 03:11:25;;;;;;;16.70;7.30;;;11.50;99.90;;;;;;5017072;28;20571;-70
2023/03/30 03:13:51;;;;;;;16.80;7.43;;;11.50;99.90;;;;;;5018436;28;20030;-69
2023/03/30 03:16:17;;;;;;;19.63;8.32;;;11.60;99.90;;;;;;5018340;28;20052;-70
2023/03/30 03:18:43;;;;;;;13.05;6.85;;;11.60;99.90;;;;;;5018285;28;20034;-70
2023/03/30 03:21:10;;;;;;;12.43;7.20;;;11.60;99.90;;;;;;5017791;28;20045;-70
2023/03/30 03:23:36;;;;;;;12.43;7.35;;;11.60;99.90;;;;;;5018312;28;20022;-70
2023/03/30 03:26:03;;;;;;;15.88;7.35;;;11.60;99.90;;;;;;5016772;28;20093;-70
2023/03/30 03:28:30;;;;;;;18.17;7.78;;;11.60;99.90;;;;;;5016742;28;20026;-69
2023/03/30 03:30:57;;;;;;;19.88;6.90;;;11.60;99.90;;;;;;5018003;28;20026;-70
2023/03/30 03:33:23;;;;;;;17.88;8.15;;;11.50;99.90;;;;;;5016669;28;20045;-70
2023/03/30 03:35:52;;;;;;;16.50;6.95;;;11.60;99.90;;;;;;5018085;28;20064;-70
2023/03/30 03:38:23;;;;;;;19.08;8.35;;;11.60;99.90;;;;;;5017965;28;20079;-70
2023/03/30 03:40:50;;;;;;;19.55;7.72;;;11.50;99.90;;;;;;5017804;28;20026;-70
2023/03/30 03:43:16;;;;;;;16.20;7.63;;;11.50;99.90;;;;;;5018026;28;20026;-70
2023/03/30 03:45:47;;;;;;;16.70;7.50;;;11.50;99.90;;;;;;5017645;28;20563;-70
2023/03/30 03:48:18;;;;;;;13.88;7.47;;;11.50;99.90;;;;;;5016606;28;20026;-70
2023/03/30 03:50:44;;;;;;;17.05;6.63;;;11.50;99.90;;;;;;5017668;28;20105;-70
2023/03/30 03:53:11;;;;;;;18.92;7.72;;;11.50;99.90;;;;;;5017747;28;20069;-70
2023/03/30 03:55:37;;;;;;;20.58;7.55;;;11.50;99.90;;;;;;5049365;28;20083;-70
2023/03/30 03:58:04;;;;;;;22.00;8.18;;;11.40;99.90;;;;;;5015073;28;20029;-70
2023/03/30 04:00:31;;;;;;;20.13;8.70;;;11.40;99.90;;;;;;5017254;28;20029;-69
2023/03/30 04:02:57;;;;;;;14.45;7.15;;;11.40;99.90;;;;;;5017492;28;20026;-69
2023/03/30 04:05:23;;;;;;;16.63;6.45;;;11.40;99.90;;;;;;5004828;28;20032;-70
2023/03/30 04:07:49;;;;;;;15.02;7.07;;;11.40;99.90;;;;;;5017227;28;20559;-70
2023/03/30 04:10:14;;;;;;;15.88;7.80;;;11.40;99.90;;;;;;5016432;28;20627;-70
2023/03/30 04:12:40;;;;;;;13.10;7.43;;;11.40;99.90;;;;;;5017529;28;20458;-70
2023/03/30 04:15:06;;;;;;;15.70;7.50;;;11.30;99.90;;;;;;5015567;28;20080;-70
2023/03/30 04:17:32;;;;;;;16.50;6.47;;;11.30;99.90;;;;;;5016152;28;20486;-70
2023/03/30 04:20:03;;;;;;;13.55;7.05;;;11.30;99.90;;;;;;5017286;28;20494;-70
2023/03/30 04:22:32;;;;;;;14.18;7.63;;;11.20;99.90;;;;;;5017111;28;20022;-71
2023/03/30 04:24:58;;;;;;;8.38;6.07;;;11.20;99.90;;;;;;5016276;28;20114;-70
2023/03/30 04:27:27;;;;;;;12.98;6.53;;;11.20;99.90;;;;;;5017223;28;20022;-70
2023/03/30 04:29:56;;;;;;;15.57;7.63;;;11.10;99.90;;;;;;5016037;28;20069;-71
2023/03/30 04:32:22;;;;;;;16.92;7.07;;;11.10;99.90;;;;;;5016099;28;20033;-71
2023/03/30 04:34:53;;;;;;;16.38;6.82;;;11.10;99.90;;;;;;5017149;28;20053;-70
2023/03/30 04:37:29;;;;;;;20.05;7.50;;;11.10;99.90;;;;;;5017137;28;20521;-70
2023/03/30 04:39:59;;;;;;;21.27;7.28;;;11.10;99.90;;;;;;5017145;28;20037;-70
2023/03/30 04:42:29;;;;;;;12.63;7.90;;;11.00;99.90;;;;;;5017153;28;20026;-70
2023/03/30 04:44:58;;;;;;;15.00;6.82;;;11.00;99.90;;;;;;5010076;28;20029;-70
2023/03/30 04:47:25;;;;;;;13.25;6.55;;;10.90;99.90;;;;;;5016678;28;20140;-70
2023/03/30 04:49:50;;;;;;;15.52;7.15;;;10.90;99.90;;;;;;5016970;28;20037;-70
2023/03/30 04:52:17;;;;;;;13.25;7.38;;;10.80;99.90;;;;;;5016733;28;20450;-71
2023/03/30 04:54:42;;;;;;;18.65;7.35;;;10.70;99.90;;;;;;5016718;28;20032;-71
2023/03/30 04:57:08;;;;;;;10.38;6.07;;;10.60;99.90;;;;;;5016776;28;20034;-71
2023/03/30 04:59:34;;;;;;;12.48;7.28;;;10.60;99.90;;;;;;5016964;28;20037;-70
2023/03/30 05:02:00;;;;;;;15.27;6.68;;;10.50;99.90;;;;;;5016753;28;20029;-70
2023/03/30 05:04:25;;;;;;;12.90;6.55;;;10.40;99.90;;;;;;5016993;28;20034;-70
2023/03/30 05:06:51;;;;;;;9.43;6.13;;;10.30;99.90;;;;;;5014778;28;20113;-70
2023/03/30 05:09:17;;;;;;;15.18;6.95;;;10.30;99.90;;;;;;5016888;28;20026;-70
2023/03/30 05:11:42;;;;;;;13.23;7.22;;;10.30;99.90;;;;;;5016630;28;20022;-70
2023/03/30 05:14:08;;;;;;;21.15;7.57;;;10.20;99.90;;;;;;5015773;28;20093;-71
2023/03/30 05:16:34;;;;;;;13.05;6.63;;;10.20;99.90;;;;;;5015492;28;20029;-70
2023/03/30 05:18:59;;;;;;;19.35;7.43;;;10.20;99.90;;;;;;5016621;28;20114;-71
2023/03/30 05:21:25;;;;;;;8.55;7.00;;;10.10;99.90;;;;;;5016299;28;20050;-71
2023/03/30 05:23:51;;;;;;;18.35;8.60;;;10.10;99.90;;;;;;5016691;28;20100;-70
2023/03/30 05:26:17;;;;;;;13.18;6.93;;;10.10;99.90;;;;;;5018051;28;20057;-69
2023/03/30 05:28:42;;;;;;;16.85;7.78;;;10.10;99.90;;;;;;5020525;28;20470;-70
2023/03/30 05:31:08;;;;;;;19.63;7.80;;;10.10;99.90;;;;;;5020481;28;20041;-70
2023/03/30 05:33:34;;;;;;;18.75;8.13;;;10.10;99.90;;;;;;5020438;28;20503;-70
2023/03/30 05:36:00;;;;;;;14.35;8.13;;;10.10;99.90;;;;;;5020196;28;20516;-70
2023/03/30 05:38:25;;;;;;;11.23;7.43;;;10.10;99.90;;;;;;5018766;28;20425;-70
2023/03/30 05:40:52;;;;;;;16.63;7.90;;;10.00;99.90;;;;;;5019891;28;20565;-70
2023/03/30 05:43:18;;;;;;;21.40;7.45;;;10.10;99.90;;;;;;5020425;28;20065;-71
2023/03/30 05:45:44;;;;;;;12.48;7.70;;;10.20;99.90;;;;;;5018339;28;20042;-71
2023/03/30 05:48:10;;;;;;;12.32;8.13;;;10.20;99.90;;;;;;5018277;28;20073;-71
2023/03/30 05:50:35;;;;;;;15.13;7.85;;;10.20;99.90;;;;;;5018509;28;20044;-71
2023/03/30 05:53:01;;;;;;;12.02;8.00;;;10.10;99.90;;;;;;5018323;28;20029;-71
2023/03/30 05:55:27;;;;;;;16.50;8.68;;;10.00;99.90;;;;;;5019485;28;20041;-71
2023/03/30 05:57:53;;;;;;;19.92;8.98;;;10.00;99.90;;;;;;5018667;28;20512;-71
2023/03/30 06:00:20;;;;;;;9.88;7.63;;;9.90;99.90;;;;;;5019536;28;20032;-71
2023/03/30 06:02:45;;;;;;;11.93;8.02;;;9.90;99.90;;;;;;5018566;28;20033;-71
2023/03/30 06:05:12;;;;;;;14.40;8.25;;;9.90;99.90;;;;;;5014999;28;20474;-71
2023/03/30 06:07:38;;;;;;;12.25;8.00;;;9.90;99.90;;;;;;5000492;28;20034;-71
2023/03/30 06:10:05;;;;;;;13.80;7.75;;;9.90;99.90;;;;;;5018329;28;20026;-71
2023/03/30 06:12:32;;;;;;;14.68;8.10;;;10.00;99.90;;;;;;5018189;28;20505;-71
2023/03/30 06:14:58;;;;;;;11.55;8.27;;;10.00;99.90;;;;;;5019309;28;20021;-71
2023/03/30 06:17:24;;;;;;;17.75;8.40;;;10.00;99.90;;;;;;5014347;28;20026;-71
2023/03/30 06:19:50;;;;;;;19.92;9.30;;;10.10;99.90;;;;;;5003545;28;20042;-71
2023/03/30 06:22:15;;;;;;;11.30;7.75;;;10.20;99.90;;;;;;5013336;28;20034;-71
2023/03/30 06:24:41;;;;;;;10.90;8.07;;;10.20;99.90;;;;;;5017877;28;20022;-71
2023/03/30 06:27:07;;;;;;;16.58;8.65;;;10.30;99.90;;;;;;5017354;28;20104;-71
2023/03/30 06:29:32;;;;;;;19.67;8.48;;;10.30;99.90;;;;;;5015164;28;20502;-71
2023/03/30 06:31:58;;;;;;;16.98;8.25;;;10.40;99.90;;;;;;5016278;28;20021;-71
2023/03/30 06:34:24;;;;;;;16.30;8.95;;;10.50;99.90;;;;;;5017359;28;20387;-71
2023/03/30 06:36:50;;;;;;;14.98;7.70;;;10.60;99.90;;;;;;5015845;28;20116;-71
2023/03/30 06:39:16;;;;;;;13.25;7.35;;;10.70;99.90;;;;;;5015171;28;20085;-71
2023/03/30 06:41:42;;;;;;;16.15;6.78;;;10.80;99.90;;;;;;5017223;28;20520;-71
2023/03/30 06:44:09;;;;;;;13.80;8.45;;;10.90;99.90;;;;;;5017427;28;20379;-71
2023/03/30 06:46:35;;;;;;;10.85;7.88;;;11.00;99.90;;;;;;5015496;28;20025;-71
2023/03/30 06:49:00;;;;;;;18.08;8.05;;;11.10;99.90;;;;;;5016594;28;20018;-71
2023/03/30 06:51:26;;;;;;;15.85;8.88;;;11.30;99.90;;;;;;5016691;28;20501;-71
2023/03/30 06:53:52;;;;;;;15.65;7.93;;;11.40;99.90;;;;;;5014933;28;20024;-71
2023/03/30 06:56:18;;;;;;;14.50;7.28;;;11.50;99.90;;;;;;5015785;28;20164;-70
2023/03/30 06:58:44;;;;;;;12.27;7.65;;;11.60;99.90;;;;;;5017157;28;20088;-70
2023/03/30 07:01:12;;;;;;;14.23;7.07;;;11.70;99.90;;;;;;5014543;28;20053;-71
2023/03/30 07:03:40;;;;;;;10.98;7.43;;;11.80;99.90;;;;;;5015697;28;20110;-71
2023/03/30 07:06:06;;;;;;;14.40;6.25;;;11.90;99.90;;;;;;5015220;28;20033;-71
2023/03/30 07:08:33;;;;;;;11.95;6.45;;;12.00;99.90;;;;;;5016639;28;20022;-71
2023/03/30 07:10:59;;;;;;;13.43;7.00;;;12.10;99.90;;;;;;5015094;28;20057;-71
2023/03/30 07:13:25;;;;;;;15.00;6.88;;;12.20;99.90;;;;;;5016949;28;20022;-71
2023/03/30 07:15:51;;;;;;;11.75;6.30;;;12.30;99.90;;;;;;5016788;28;20117;-71
2023/03/30 07:18:17;;;;;;;13.13;6.18;;;12.50;99.90;;;;;;5015686;28;20104;-71
2023/03/30 07:20:44;;;;;;;13.68;5.70;;;12.60;99.90;;;;;;5015417;28;20096;-71
2023/03/30 07:23:10;;;;;;;13.50;5.80;;;12.70;99.90;;;;;;5015959;28;20026;-72
2023/03/30 07:25:37;;;;;;;13.70;5.25;;;12.80;99.90;;;;;;5015305;28;20030;-71
2023/03/30 07:28:05;;;;;;;10.07;6.05;;;12.90;99.90;;;;;;5016699;28;20026;-72
2023/03/30 07:30:31;;;;;;;10.38;5.20;;;13.00;99.90;;;;;;5012913;28;20462;-71
2023/03/30 07:32:57;;;;;;;12.73;5.47;;;13.10;99.90;;;;;;5013812;28;20118;-72
2023/03/30 07:35:23;;;;;;;9.00;4.88;;;13.20;99.90;;;;;;5015009;28;20053;-71
2023/03/30 07:37:49;;;;;;;10.95;4.90;;;13.30;99.90;;;;;;5016166;28;20030;-71
2023/03/30 07:40:16;;;;;;;9.60;5.40;;;13.40;99.90;;;;;;5014630;28;20029;-72
2023/03/30 07:42:42;;;;;;;12.70;5.28;;;13.50;99.90;;;;;;5015104;28;20102;-71
2023/03/30 07:45:08;;;;;;;9.25;4.70;;;13.60;99.90;;;;;;5016184;28;20029;-71
2023/03/30 07:47:35;;;;;;;14.98;6.32;;;13.70;99.90;;;;;;5016006;28;20041;-73
2023/03/30 07:50:00;;;;;;;8.68;5.75;;;13.80;99.90;;;;;;5012359;28;20024;-73
2023/03/30 07:52:26;;;;;;;17.25;6.03;;;13.90;99.90;;;;;;5016242;28;20473;-73
2023/03/30 07:54:53;;;;;;;12.63;5.55;;;14.10;99.90;;;;;;5016037;28;20018;-73
2023/03/30 07:57:20;;;;;;;9.45;4.45;;;14.20;99.90;;;;;;5012009;28;20026;-73
2023/03/30 07:59:46;;;;;;;15.20;5.20;;;14.30;99.90;;;;;;5012979;28;20053;-73
2023/03/30 08:02:13;;;;;;;14.95;4.82;;;14.40;99.90;;;;;;5012263;28;20107;-73
2023/03/30 08:04:40;;;;;;;11.32;4.95;;;14.60;99.90;;;;;;5014213;28;20040;-73
2023/03/30 08:07:06;;;;;;;15.27;5.10;;;14.70;99.90;;;;;;5011675;28;20025;-73
2023/03/30 08:09:32;;;;;;;14.82;6.45;;;14.80;99.90;;;;;;5015372;28;20022;-73
2023/03/30 08:11:58;;;;;;;10.73;5.47;;;14.90;99.90;;;;;;5001877;28;20057;-73
2023/03/30 08:14:26;;;;;;;19.80;6.15;;;14.90;99.90;;;;;;5015093;28;20022;-73
2023/03/30 08:16:52;;;;;;;13.10;4.40;;;15.00;99.90;;;;;;5012689;28;20510;-73
2023/03/30 08:19:19;;;;;;;18.90;6.40;;;15.10;99.90;;;;;;5014382;28;20034;-73
2023/03/30 08:21:45;;;;;;;12.68;4.95;;;15.20;99.90;;;;;;5014762;28;20030;-73
2023/03/30 08:24:10;;;;;;;10.55;4.90;;;15.40;99.90;;;;;;5015679;28;20026;-73
2023/03/30 08:26:37;;;;;;;10.98;4.85;;;15.40;99.90;;;;;;5014114;28;20032;-74
2023/03/30 08:29:03;;;;;;;6.72;3.90;;;15.50;99.90;;;;;;5015697;28;20132;-73
2023/03/30 08:31:31;;;;;;;26.70;5.53;;;15.60;99.90;;;;;;5014542;28;20026;-73
2023/03/30 08:34:01;;;;;;;12.80;4.00;;;15.90;99.90;;;;;;5015766;28;20046;-74
2023/03/30 08:36:27;;;;;;;40.00;6.18;;;16.10;99.90;;;;;;5014530;28;20033;-74
2023/03/30 08:38:54;;;;;;;13.30;3.80;;;16.20;99.90;;;;;;5015483;28;20041;-74
2023/03/30 08:41:30;;;;;;;15.75;5.15;;;16.30;99.90;;;;;;5013730;28;20457;-74
2023/03/30 08:44:22;;;;;;;14.40;3.42;;;16.30;99.90;;;;;;5014547;28;20030;-74
2023/03/30 08:46:48;;;;;;;17.40;4.93;;;16.30;99.90;;;;;;4995561;28;20042;-74
2023/03/30 08:49:18;;;;;;;13.82;4.38;;;16.40;99.90;;;;;;5014469;28;20025;-73
2023/03/30 08:51:46;;;;;;;5.97;4.00;;;16.40;99.90;;;;;;5015389;28;20018;-74
2023/03/30 08:54:15;;;;;;;10.70;4.05;;;16.40;99.90;;;;;;4977893;28;20066;-73
2023/03/30 08:56:44;;;;;;;12.85;4.53;;;16.40;99.90;;;;;;4968710;28;20077;-74
2023/03/30 08:59:40;;;;;;;10.27;3.75;;;16.30;99.90;;;;;;4966538;28;20027;-74
2023/03/30 09:02:16;;;;;;;8.52;4.00;;;16.40;99.90;;;;;;4966679;28;20058;-74
2023/03/30 09:05:07;;;;;;;13.05;3.60;;;16.50;99.90;;;;;;4973561;28;20538;-73
2023/03/30 09:07:39;;;;;;;15.98;4.35;;;16.60;99.90;;;;;;4969320;28;20086;-73
2023/03/30 09:10:13;;;;;;;10.32;4.13;;;16.70;99.90;;;;;;4970972;28;20054;-73
2023/03/30 09:12:54;;;;;;;8.75;4.45;;;16.80;99.90;;;;;;4968375;28;20026;-73
2023/03/30 09:15:27;;;;;;;14.90;4.50;;;16.90;99.90;;;;;;4973264;28;20102;-73
2023/03/30 09:18:21;;;;;;;8.82;2.80;;;17.10;99.90;;;;;;4972161;28;20031;-73
2023/03/30 09:20:50;;;;;;;18.13;3.88;;;17.20;99.90;;;;;;4970267;28;20361;-73
2023/03/30 09:23:17;;;;;;;8.63;3.33;;;17.40;99.90;;;;;;4973601;28;20023;-73
2023/03/30 09:25:55;;;;;;;13.30;3.92;;;17.50;99.90;;;;;;4973023;28;20031;-73
2023/03/30 09:28:32;;;;;;;17.02;4.47;;;17.70;99.90;;;;;;4967608;28;20038;-73
2023/03/30 09:31:12;;;;;;;16.55;4.68;;;17.90;99.90;;;;;;4982782;28;20376;-74
2023/03/30 09:34:17;;;;;;;12.45;3.60;;;18.00;99.90;;;;;;4977505;28;20031;-73
2023/03/30 09:36:56;;;;;;;17.10;4.30;;;18.00;99.90;;;;;;4970691;28;20122;-73
2023/03/30 09:39:27;;;;;;;13.55;3.83;;;18.00;99.90;;;;;;4971101;28;20470;-73
2023/03/30 09:41:58;;;;;;;12.68;3.55;;;17.90;99.90;;;;;;4971889;28;20029;-73
2023/03/30 09:44:36;;;;;;;12.60;3.38;;;17.70;99.90;;;;;;4971653;28;20750;-73
2023/03/30 09:47:12;;;;;;;8.38;3.42;;;17.60;99.90;;;;;;4964843;28;20028;-73
2023/03/30 09:49:38;;;;;;;9.57;3.30;;;17.60;99.90;;;;;;4973887;28;20038;-73
2023/03/30 09:52:06;;;;;;;15.68;3.85;;;17.70;99.90;;;;;;4965340;28;20039;-73
2023/03/30 09:54:40;;;;;;;16.63;4.50;;;17.60;99.90;;;;;;4962557;28;20026;-73
2023/03/30 09:57:31;;;;;;;13.27;4.03;;;17.60;99.90;;;;;;4974076;28;20019;-73
2023/03/30 09:59:59;;;;;;;8.25;3.90;;;17.70;99.90;;;;;;4960773;28;20041;-71
2023/03/30 10:02:27;;;;;;;11.13;3.58;;;17.70;99.90;;;;;;4970836;28;20030;-71
2023/03/30 10:04:55;;;;;;;14.50;3.30;;;17.80;99.90;;;;;;4973759;28;20034;-71
2023/03/30 10:07:40;;;;;;;11.23;3.60;;;17.90;99.90;;;;;;4968705;28;20015;-72
2023/03/30 10:10:34;;;;;;;14.25;3.53;;;18.00;99.90;;;;;;4967610;28;20037;-72
2023/03/30 10:13:06;;;;;;;12.85;3.80;;;18.20;99.90;;;;;;4976018;28;20095;-72
2023/03/30 10:15:35;;;;;;;9.70;3.70;;;18.50;99.90;;;;;;4969267;28;20035;-72
2023/03/30 10:18:18;;;;;;;16.15;3.92;;;18.70;99.90;;;;;;4968545;28;20054;-71
2023/03/30 10:20:51;;;;;;;15.38;3.63;;;18.70;99.90;;;;;;4971484;28;20535;-71
2023/03/30 10:23:20;;;;;;;10.60;3.72;;;18.50;99.90;;;;;;4974001;28;20015;-71
2023/03/30 10:25:50;;;;;;;16.60;4.55;;;18.30;99.90;;;;;;4972691;28;20062;-71
2023/03/30 10:28:26;;;;;;;16.53;3.43;;;18.20;99.90;;;;;;4970841;28;20027;-71
2023/03/30 10:30:55;;;;;;;11.38;4.20;;;18.40;99.90;;;;;;4972143;28;20314;-72
2023/03/30 10:33:21;;;;;;;14.00;3.33;;;18.70;99.90;;;;;;4975729;28;20487;-72
2023/03/30 10:35:52;;;;;;;9.77;2.90;;;19.10;99.90;;;;;;4968438;28;20027;-71
2023/03/30 10:38:19;;;;;;;12.30;3.75;;;18.90;99.90;;;;;;4972188;28;20019;-72
2023/03/30 10:40:46;;;;;;;13.88;3.65;;;19.10;99.90;;;;;;4970347;28;20027;-72
2023/03/30 10:43:16;;;;;;;10.52;3.17;;;19.20;99.90;;;;;;4974977;28;20038;-72
2023/03/30 10:45:55;;;;;;;17.00;3.63;;;19.20;99.90;;;;;;4976724;28;20031;-71
2023/03/30 10:48:39;;;;;;;13.32;3.97;;;19.30;99.90;;;;;;4973075;28;20173;-71
2023/03/30 10:51:20;;;;;;;13.80;3.45;;;19.20;99.90;;;;;;4965328;28;20062;-72
2023/03/30 10:54:08;;;;;;;13.55;3.40;;;19.10;99.90;;;;;;4974372;28;20030;-72
2023/03/30 10:56:48;;;;;;;13.15;3.47;;;19.10;99.90;;;;;;4959986;28;20034;-72
2023/03/30 10:59:41;;;;;;;20.23;3.35;;;19.20;99.90;;;;;;4970680;28;20047;-71
2023/03/30 11:02:54;;;;;;;19.42;5.15;;;19.20;99.90;;;;;;4968820;28;20029;-71
2023/03/30 11:05:30;;;;;;;13.20;3.72;;;19.20;99.90;;;;;;4960273;28;20127;-72
2023/03/30 11:08:03;;;;;;;11.55;3.72;;;19.60;99.90;;;;;;4972760;28;20082;-72
2023/03/30 11:10:53;;;;;;;17.02;4.35;;;20.00;99.90;;;;;;4971346;28;20105;-72
2023/03/30 11:13:27;;;;;;;15.32;3.00;;;20.00;99.90;;;;;;4957999;28;20463;-72
2023/03/30 11:15:59;;;;;;;10.88;3.35;;;20.00;99.90;;;;;;4969889;28;20110;-72
2023/03/30 11:18:41;;;;;;;15.27;2.83;;;19.90;99.90;;;;;;4967159;28;20027;-72
2023/03/30 11:21:43;;;;;;;20.23;3.47;;;20.00;99.90;;;;;;4958024;28;20051;-71
2023/03/30 11:24:22;;;;;;;17.30;4.15;;;20.00;99.90;;;;;;4968714;28;20533;-72
2023/03/30 11:27:10;;;;;;;16.08;4.28;;;20.10;99.90;;;;;;4968211;28;20786;-72
2023/03/30 11:29:47;;;;;;;8.77;3.30;;;20.10;99.90;;;;;;4958859;28;20057;-72
2023/03/30 11:32:51;;;;;;;11.15;3.50;;;20.20;99.90;;;;;;4968878;28;20039;-72
2023/03/30 11:35:40;;;;;;;10.30;3.28;;;20.10;99.90;;;;;;4970862;28;20073;-72
2023/03/30 11:38:46;;;;;;;20.52;4.53;;;20.10;99.90;;;;;;4965473;28;20031;-72
2023/03/30 11:41:15;;;;;;;10.00;4.05;;;20.00;99.90;;;;;;4934058;28;20042;-72
2023/03/30 11:43:41;;;;;;;10.80;3.03;;;20.00;99.90;;;;;;4970121;28;20026;-72
2023/03/30 11:46:13;;;;;;;13.50;3.25;;;20.10;99.90;;;;;;4969216;28;20118;-72
2023/03/30 11:49:06;;;;;;;12.43;3.70;;;20.30;99.90;;;;;;4968211;28;20019;-72
2023/03/30 11:52:00;;;;;;;16.52;3.95;;;20.40;99.90;;;;;;4966326;28;20037;-72
2023/03/30 11:54:42;;;;;;;14.57;3.22;;;20.60;99.90;;;;;;4964488;28;20035;-71
2023/03/30 11:57:19;;;;;;;12.35;3.28;;;20.90;99.90;;;;;;4962278;28;20448;-72
2023/03/30 12:00:00;;;;;;;13.82;3.28;;;21.00;99.90;;;;;;4969884;28;20399;-72
2023/03/30 12:02:43;;;;;;;18.13;3.80;;;21.20;99.90;;;;;;4974349;28;20031;-72
2023/03/30 12:05:30;;;;;;;16.27;4.10;;;21.20;99.90;;;;;;4971148;28;20077;-71
2023/03/30 12:08:04;;;;;;;14.93;4.20;;;20.90;99.90;;;;;;4970023;28;20042;-72
2023/03/30 12:10:33;;;;;;;11.43;3.63;;;20.80;99.90;;;;;;4959906;28;20019;-72
2023/03/30 12:13:01;;;;;;;12.88;2.95;;;20.70;99.90;;;;;;4958658;29;20027;-72
2023/03/30 12:15:52;;;;;;;8.45;2.72;;;20.70;99.90;;;;;;4958915;28;20030;-72
2023/03/30 12:18:24;;;;;;;10.05;3.28;;;20.90;99.90;;;;;;4958497;28;20110;-72
2023/03/30 12:21:09;;;;;;;10.43;3.20;;;20.90;99.90;;;;;;4952271;29;20059;-72
2023/03/30 12:24:24;;;;;;;12.95;3.65;;;21.30;99.90;;;;;;4957970;28;20031;-74
2023/03/30 12:26:50;;;;;;;9.27;2.70;;;21.20;99.90;;;;;;4952506;29;20082;-73
2023/03/30 12:29:17;;;;;;;12.82;3.75;;;21.10;99.90;;;;;;4958649;29;20011;-72
2023/03/30 12:31:54;;;;;;;11.20;2.97;;;20.90;99.90;;;;;;4958605;28;20031;-72
2023/03/30 12:34:26;;;;;;;12.38;2.67;;;20.90;99.90;;;;;;4958557;28;20030;-72
2023/03/30 12:37:03;;;;;;;16.33;3.28;;;20.70;99.90;;;;;;4957559;28;20043;-72
2023/03/30 12:39:43;;;;;;;13.57;3.90;;;20.70;99.90;;;;;;4957347;29;20027;-72
2023/03/30 12:42:26;;;;;;;15.90;3.47;;;21.00;99.90;;;;;;4957494;28;20400;-73
2023/03/30 12:44:55;;;;;;;11.43;3.10;;;20.80;99.90;;;;;;4958599;28;20042;-72
2023/03/30 12:47:46;;;;;;;11.52;2.90;;;20.80;99.90;;;;;;4957121;28;20038;-72
2023/03/30 12:50:37;;;;;;;17.70;3.47;;;20.90;99.90;;;;;;4937903;29;20031;-73
2023/03/30 12:53:30;;;;;;;8.18;3.35;;;20.80;99.90;;;;;;4952296;28;20024;-72
2023/03/30 12:56:20;;;;;;;14.77;4.53;;;20.80;99.90;;;;;;4957096;28;20023;-73
2023/03/30 12:59:10;;;;;;;16.48;4.45;;;20.80;99.90;;;;;;4956995;28;20042;-76
2023/03/30 13:02:03;;;;;;;24.60;6.47;;;20.80;99.90;;;;;;4957295;28;20027;-73
2023/03/30 13:04:36;;;;;;;12.90;3.35;;;20.80;99.90;;;;;;4953317;29;20047;-73